Time;durP1;ratioP1;P1;durP2;ratioP2;P2;SDS_P1;SDS_P2;PMS_P1;PMS_P2;Temp;Humidity;BMP_temperature;BMP_pressure;BME280_temperature;BME280_humidity;BME280_pressure;Samples;Min_cycle;Max_cycle;Signal;HPM_P1;HPM_P2
2022/12/22 03:28:02;;;;;;;6.80;3.80;;;;;;;11.00;100.00;99661.25;5109466;27;20686;-59
2022/12/22 03:30:31;;;;;;;8.70;4.00;;;;;;;11.02;100.00;99667.22;5102787;27;20704;-60
2022/12/22 03:33:00;;;;;;;7.00;3.60;;;;;;;11.06;100.00;99662.41;5106059;27;20239;-61
2022/12/22 03:35:31;;;;;;;8.03;4.43;;;;;;;11.07;100.00;99653.47;5109856;27;20314;-60
2022/12/22 03:38:02;;;;;;;8.00;4.40;;;;;;;11.08;100.00;99661.22;5106082;28;20203;-61
2022/12/22 03:40:30;;;;;;;6.93;4.20;;;;;;;11.15;100.00;99650.78;5104600;27;20264;-60
2022/12/22 03:49:08;;;;;;;5.53;3.20;;;;;;;11.14;100.00;99643.81;5101330;27;20216;-61
2022/12/22 03:51:45;;;;;;;6.43;4.10;;;;;;;11.11;100.00;99641.50;5103734;27;20211;-61
2022/12/22 03:54:16;;;;;;;7.77;3.90;;;;;;;11.11;100.00;99626.41;5104780;27;20212;-61
2022/12/22 03:56:54;;;;;;;7.80;3.97;;;;;;;11.18;100.00;99624.72;5106539;27;20855;-60
2022/12/22 03:59:25;;;;;;;5.97;3.40;;;;;;;11.20;100.00;99619.22;5103551;27;20215;-60
2022/12/22 04:01:54;;;;;;;11.37;3.47;;;;;;;11.19;100.00;99620.22;5105918;27;21819;-60
2022/12/22 04:04:25;;;;;;;8.23;3.40;;;;;;;11.19;100.00;99621.06;5097806;27;20863;-60
2022/12/22 04:06:54;;;;;;;9.67;3.53;;;;;;;11.24;100.00;99626.69;5102807;27;20299;-60
2022/12/22 04:09:23;;;;;;;7.93;3.27;;;;;;;11.23;100.00;99622.38;5099105;27;20208;-60
2022/12/22 04:14:37;;;;;;;8.73;4.07;;;;;;;11.27;100.00;99617.53;5103178;28;20294;-59
2022/12/22 04:17:07;;;;;;;7.50;3.30;;;;;;;11.21;100.00;99608.44;5106277;27;20227;-60
2022/12/22 04:19:34;;;;;;;6.27;2.97;;;;;;;11.19;100.00;99615.75;5101407;28;20216;-60
2022/12/22 04:22:04;;;;;;;4.93;2.67;;;;;;;11.20;100.00;99619.22;5108493;27;20315;-59
2022/12/22 04:24:32;;;;;;;8.03;3.40;;;;;;;11.26;100.00;99610.56;5096624;27;20249;-60
2022/12/22 04:27:00;;;;;;;6.20;2.97;;;;;;;11.28;100.00;99601.44;5099145;28;20202;-60
2022/12/22 04:29:28;;;;;;;5.00;3.00;;;;;;;11.28;100.00;99600.63;5090865;27;20244;-60
2022/12/22 04:31:55;;;;;;;4.63;2.63;;;;;;;11.25;100.00;99587.72;5076638;28;20217;-60
2022/12/22 04:34:23;;;;;;;7.80;2.70;;;;;;;11.25;100.00;99585.06;5088185;28;20222;-60
2022/12/22 04:36:52;;;;;;;5.77;2.70;;;;;;;11.24;100.00;99588.72;5080822;28;20208;-60
2022/12/22 04:39:21;;;;;;;6.83;3.10;;;;;;;11.28;100.00;99587.34;5080301;28;20265;-60
2022/12/22 04:41:49;;;;;;;5.33;2.43;;;;;;;11.26;100.00;99589.34;5083959;28;20215;-59
2022/12/22 04:44:17;;;;;;;8.80;2.23;;;;;;;11.26;100.00;99592.00;5082539;28;20214;-60
2022/12/22 04:46:45;;;;;;;6.40;2.40;;;;;;;11.30;100.00;99580.88;5078086;28;20256;-59
2022/12/22 04:49:13;;;;;;;8.03;2.40;;;;;;;11.27;100.00;99577.72;5087241;28;20255;-60
2022/12/22 04:51:41;;;;;;;5.57;2.10;;;;;;;11.29;100.00;99570.44;5086718;28;20643;-60
2022/12/22 04:54:12;;;;;;;8.33;2.07;;;;;;;11.31;100.00;99565.78;5062039;28;20218;-60
2022/12/22 04:56:41;;;;;;;5.20;1.87;;;;;;;11.38;100.00;99555.28;5068928;28;20198;-60
2022/12/22 04:59:09;;;;;;;6.57;2.03;;;;;;;11.31;100.00;99557.81;5072048;28;20211;-60
2022/12/22 05:01:37;;;;;;;3.97;1.63;;;;;;;11.32;100.00;99570.09;5072020;28;20205;-60
2022/12/22 05:04:05;;;;;;;9.87;2.13;;;;;;;11.39;100.00;99565.72;5073797;28;20296;-60
2022/12/22 05:06:32;;;;;;;4.73;2.10;;;;;;;11.38;100.00;99561.41;5062136;28;20223;-60
2022/12/22 05:09:00;;;;;;;4.93;1.40;;;;;;;11.35;100.00;99569.72;5059831;28;20206;-60
2022/12/22 05:11:28;;;;;;;7.30;1.30;;;;;;;11.37;100.00;99554.44;5068090;28;20322;-60
2022/12/22 05:13:58;;;;;;;4.10;1.50;;;;;;;11.42;100.00;99552.13;5066124;28;20213;-60
2022/12/22 05:16:33;;;;;;;4.57;1.20;;;;;;;11.49;100.00;99549.56;5068198;28;20211;-61
2022/12/22 05:19:02;;;;;;;2.80;1.17;;;;;;;11.45;100.00;99541.13;5070647;28;20208;-61
2022/12/22 05:21:29;;;;;;;3.37;1.30;;;;;;;11.43;100.00;99543.16;5077707;28;20226;-60
2022/12/22 05:23:58;;;;;;;3.60;1.33;;;;;;;11.39;100.00;99547.16;5083663;28;20254;-60
2022/12/22 05:26:26;;;;;;;4.03;1.07;;;;;;;11.40;100.00;99548.81;5084607;28;20266;-60
2022/12/22 05:28:54;;;;;;;3.87;1.40;;;;;;;11.43;100.00;99548.47;5088938;28;20259;-61
2022/12/22 05:31:25;;;;;;;3.57;1.13;;;;;;;11.49;100.00;99547.75;5105335;28;20216;-60
2022/12/22 05:33:53;;;;;;;3.43;1.20;;;;;;;11.52;100.00;99550.03;5108956;28;20819;-61
2022/12/22 05:36:21;;;;;;;3.80;1.33;;;;;;;11.55;100.00;99555.00;5107364;28;20725;-60
2022/12/22 05:38:49;;;;;;;1.77;1.00;;;;;;;11.58;100.00;99541.38;5105754;28;20259;-60
2022/12/22 05:41:17;;;;;;;3.90;1.03;;;;;;;11.59;100.00;99547.53;5108627;28;20209;-60
2022/12/22 05:43:45;;;;;;;1.80;1.00;;;;;;;11.59;100.00;99543.03;5105153;28;20292;-59
2022/12/22 05:46:13;;;;;;;3.40;1.10;;;;;;;11.58;100.00;99545.88;5103530;28;20244;-61
2022/12/22 05:48:42;;;;;;;1.50;0.93;;;;;;;11.57;100.00;99547.69;5108516;28;20212;-60
2022/12/22 05:51:10;;;;;;;3.80;1.17;;;;;;;11.58;100.00;99541.38;5103948;28;20254;-61
2022/12/22 05:53:39;;;;;;;5.93;1.10;;;;;;;11.64;100.00;99539.84;5102740;28;20741;-61
2022/12/22 05:56:08;;;;;;;5.37;1.03;;;;;;;11.72;100.00;99538.94;5106089;28;20251;-60
2022/12/22 05:58:38;;;;;;;3.13;1.20;;;;;;;11.67;100.00;99545.63;5104308;28;20717;-60
2022/12/22 06:01:06;;;;;;;4.70;1.07;;;;;;;11.70;100.00;99545.25;5105116;28;20208;-60
2022/12/22 06:03:34;;;;;;;4.97;1.10;;;;;;;11.70;100.00;99555.88;5108633;27;20334;-61
2022/12/22 06:06:05;;;;;;;1.57;0.73;;;;;;;11.70;100.00;99555.88;5108695;27;20781;-61
2022/12/22 06:08:32;;;;;;;4.23;1.07;;;;;;;11.69;100.00;99548.13;5109312;27;20665;-62
2022/12/22 06:11:00;;;;;;;3.43;0.93;;;;;;;11.76;100.00;99557.06;5111368;27;20233;-60
2022/12/22 06:13:28;;;;;;;5.37;1.20;;;;;;;11.77;100.00;99558.72;5106574;28;20260;-61
2022/12/22 06:15:56;;;;;;;4.10;1.00;;;;;;;11.86;100.00;99549.66;5105028;27;20237;-59
2022/12/22 06:18:24;;;;;;;7.17;1.10;;;;;;;11.86;100.00;99548.84;5112543;27;20205;-61
2022/12/22 06:20:52;;;;;;;4.73;0.90;;;;;;;11.88;100.00;99552.13;5106719;27;20205;-58
2022/12/22 06:23:22;;;;;;;3.90;1.47;;;;;;;11.89;100.00;99561.75;5108121;27;20277;-60
2022/12/22 06:25:54;;;;;;;6.63;1.10;;;;;;;11.88;100.00;99560.91;5106958;27;20210;-60
2022/12/22 06:28:23;;;;;;;4.17;0.90;;;;;;;11.87;100.00;99559.28;5110223;27;20236;-60
2022/12/22 06:30:51;;;;;;;5.20;1.50;;;;;;;12.06;100.00;99556.13;5102163;27;20485;-60
2022/12/22 06:33:19;;;;;;;4.07;1.00;;;;;;;12.02;100.00;99561.97;5105327;27;20217;-60
2022/12/22 06:35:47;;;;;;;4.10;1.17;;;;;;;11.99;100.00;99560.50;5108055;27;20212;-60
2022/12/22 06:38:26;;;;;;;4.50;1.03;;;;;;;11.97;100.00;99567.00;5105614;27;21833;-60
2022/12/22 06:40:53;;;;;;;5.63;1.20;;;;;;;11.95;100.00;99575.16;5110254;27;20605;-58
2022/12/22 06:43:20;;;;;;;5.13;1.27;;;;;;;11.98;100.00;99569.47;5113053;27;20217;-60
2022/12/22 06:45:48;;;;;;;3.17;1.10;;;;;;;12.03;100.00;99560.97;5106761;27;20213;-59
2022/12/22 06:48:16;;;;;;;7.60;1.37;;;;;;;12.02;100.00;99548.69;5105367;27;20221;-59
2022/12/22 06:50:44;;;;;;;7.70;1.30;;;;;;;11.96;100.00;99555.53;5105572;27;20251;-59
2022/12/22 06:53:12;;;;;;;4.27;1.17;;;;;;;11.96;100.00;99552.88;5106052;27;20210;-59
2022/12/22 06:55:41;;;;;;;8.50;1.30;;;;;;;12.02;100.00;99548.69;5104263;27;20206;-59
2022/12/22 06:58:09;;;;;;;6.87;1.63;;;;;;;11.98;100.00;99550.06;5110060;27;20648;-59
2022/12/22 07:00:37;;;;;;;6.70;1.60;;;;;;;11.97;100.00;99556.38;5107490;27;20289;-59
2022/12/22 07:03:05;;;;;;;6.47;1.77;;;;;;;11.91;100.00;99557.91;5105883;27;20198;-58
2022/12/22 07:05:33;;;;;;;4.90;1.30;;;;;;;11.96;100.00;99557.41;5110157;27;20748;-59
2022/12/22 07:08:01;;;;;;;7.27;1.87;;;;;;;11.93;100.00;99555.09;5109866;27;20305;-59
2022/12/22 07:13:22;;;;;;;5.57;1.20;;;;;;;11.96;100.00;99563.50;5101863;27;20711;-59
2022/12/22 07:15:52;;;;;;;6.87;1.40;;;;;;;12.05;100.00;99553.63;5106202;27;20210;-59
2022/12/22 07:18:28;;;;;;;6.93;1.40;;;;;;;11.98;100.00;99568.66;5105649;27;20200;-58
2022/12/22 07:20:56;;;;;;;2.67;1.03;;;;;;;11.96;100.00;99558.19;5105902;27;20232;-59
2022/12/22 07:23:24;;;;;;;6.27;0.97;;;;;;;11.98;100.00;99558.84;5107932;28;20214;-58
2022/12/22 07:25:52;;;;;;;2.23;0.60;;;;;;;12.03;100.00;99556.50;5105010;28;20258;-59
2022/12/22 07:28:20;;;;;;;2.40;0.60;;;;;;;12.16;99.40;99555.88;5108800;28;20643;-60
2022/12/22 07:30:49;;;;;;;5.73;0.73;;;;;;;12.18;98.56;99553.88;5107386;28;20706;-59
2022/12/22 07:33:18;;;;;;;2.67;0.77;;;;;;;12.24;97.01;99563.75;5108143;28;20324;-60
2022/12/22 07:35:46;;;;;;;2.30;0.70;;;;;;;12.27;96.56;99555.44;5106035;28;20728;-59
2022/12/22 07:38:14;;;;;;;4.57;0.70;;;;;;;12.25;96.09;99554.78;5103976;28;20552;-59
2022/12/22 07:40:42;;;;;;;5.63;0.70;;;;;;;12.27;95.57;99557.25;5110737;28;20604;-60
2022/12/22 07:43:16;;;;;;;3.93;0.90;;;;;;;12.34;94.10;99559.00;5108078;28;20205;-59
2022/12/22 07:45:44;;;;;;;7.43;1.20;;;;;;;12.42;93.55;99572.22;5109417;28;20582;-60
2022/12/22 07:51:06;;;;;;;6.83;1.33;;;;;;;12.47;92.64;99584.16;5107599;28;20268;-60
2022/12/22 07:53:34;;;;;;;5.87;1.03;;;;;;;12.47;92.58;99582.34;5108858;28;20325;-60
2022/12/22 07:56:04;;;;;;;6.27;1.30;;;;;;;12.48;92.28;99585.81;5103405;28;20217;-60
2022/12/22 07:58:32;;;;;;;3.00;0.80;;;;;;;12.48;91.58;99585.81;5094447;28;20245;-59
2022/12/22 08:01:01;;;;;;;4.93;1.17;;;;;;;12.50;91.29;99586.44;5103098;28;20263;-59
2022/12/22 08:03:30;;;;;;;6.03;1.30;;;;;;;12.50;91.42;99589.09;5106805;28;20210;-60
2022/12/22 08:05:58;;;;;;;5.30;1.00;;;;;;;12.55;91.39;99578.75;5104453;28;20214;-59
2022/12/22 08:08:26;;;;;;;5.93;1.57;;;;;;;12.57;91.07;99572.25;5105181;28;20594;-60
2022/12/22 08:10:54;;;;;;;5.90;1.30;;;;;;;12.66;90.28;99573.00;5104041;28;20239;-58
2022/12/22 08:13:21;;;;;;;10.83;2.23;;;;;;;12.65;89.66;99576.66;5104796;28;20826;-60
2022/12/22 08:15:49;;;;;;;9.93;2.00;;;;;;;12.62;89.40;99569.03;5103956;28;20202;-60
2022/12/22 08:18:17;;;;;;;10.10;1.97;;;;;;;12.75;88.10;99561.25;5101969;27;20305;-59
2022/12/22 08:20:50;;;;;;;6.83;1.37;;;;;;;12.78;87.85;99566.19;5104682;28;20202;-59
2022/12/22 08:23:18;;;;;;;6.50;1.43;;;;;;;12.85;87.44;99567.09;5103786;28;20244;-60
2022/12/22 08:25:50;;;;;;;7.90;1.87;;;;;;;12.86;87.08;99568.75;5103518;28;20256;-60
2022/12/22 08:28:18;;;;;;;5.57;1.50;;;;;;;12.92;86.13;99572.53;5104656;28;20216;-59
2022/12/22 08:30:46;;;;;;;8.10;1.60;;;;;;;12.97;86.36;99562.97;5105486;27;20240;-60
2022/12/22 08:33:14;;;;;;;6.80;1.53;;;;;;;13.17;84.83;99574.72;5104279;28;20231;-60
2022/12/22 08:35:42;;;;;;;8.87;1.50;;;;;;;13.23;84.80;99574.97;5101490;28;20210;-60
2022/12/22 08:38:13;;;;;;;6.13;1.40;;;;;;;13.18;84.61;99568.41;5101483;28;20955;-60
2022/12/22 08:40:43;;;;;;;5.53;1.30;;;;;;;13.22;83.97;99578.66;5101745;27;20205;-60
2022/12/22 08:43:12;;;;;;;7.87;1.30;;;;;;;13.18;84.20;99583.53;5101013;28;20206;-60
2022/12/22 08:45:41;;;;;;;7.40;1.20;;;;;;;13.22;83.88;99589.31;5103858;28;20252;-60
2022/12/22 08:48:09;;;;;;;8.87;1.63;;;;;;;13.16;84.20;99581.06;5102413;27;20229;-60
2022/12/22 08:50:37;;;;;;;8.20;1.50;;;;;;;13.15;83.67;99579.41;5103742;28;20205;-58
2022/12/22 08:53:07;;;;;;;6.67;1.40;;;;;;;13.12;84.47;99578.91;5102313;28;20235;-59
2022/12/22 08:55:56;;;;;;;8.17;1.63;;;;;;;13.05;84.91;99570.84;5102971;28;20257;-60
2022/12/22 08:58:24;;;;;;;8.43;2.03;;;;;;;13.05;84.66;99578.00;5102412;28;20204;-59
2022/12/22 09:00:51;;;;;;;9.90;1.83;;;;;;;13.04;84.92;99587.81;5102156;28;20211;-59
2022/12/22 09:03:19;;;;;;;5.70;1.30;;;;;;;12.99;85.45;99590.22;5103346;28;20318;-60
2022/12/22 09:05:47;;;;;;;7.37;1.90;;;;;;;13.10;84.19;99580.97;5101731;28;20207;-59
2022/12/22 09:08:15;;;;;;;8.80;1.50;;;;;;;13.07;84.51;99570.66;5102162;28;20225;-59
2022/12/22 09:10:43;;;;;;;9.93;1.50;;;;;;;13.10;84.47;99584.44;5100599;28;20213;-59
2022/12/22 09:13:12;;;;;;;8.67;2.37;;;;;;;13.06;84.94;99583.16;5104356;28;20593;-59
2022/12/22 09:15:40;;;;;;;6.57;1.70;;;;;;;13.10;84.02;99586.28;5101291;28;20206;-57
2022/12/22 09:18:08;;;;;;;7.37;1.13;;;;;;;13.10;83.73;99586.28;5104454;28;20586;-60
2022/12/22 09:20:35;;;;;;;9.63;1.40;;;;;;;13.06;84.12;99591.13;5103869;28;20631;-59
2022/12/22 09:23:03;;;;;;;8.57;1.77;;;;;;;13.13;83.58;99581.41;5101528;28;20822;-60
2022/12/22 09:25:31;;;;;;;7.97;1.10;;;;;;;13.06;83.97;99584.97;5102807;28;20641;-59
2022/12/22 09:27:58;;;;;;;7.23;1.10;;;;;;;13.02;84.29;99579.19;5102049;28;20693;-59
2022/12/22 09:30:27;;;;;;;4.87;0.97;;;;;;;12.99;84.67;99595.56;5102307;28;20231;-59
2022/12/22 09:32:55;;;;;;;11.33;1.47;;;;;;;13.04;84.43;99605.63;5105038;28;20238;-59
2022/12/22 09:35:23;;;;;;;7.90;1.27;;;;;;;12.94;83.99;99611.22;5102117;28;20300;-60
2022/12/22 09:37:50;;;;;;;7.13;0.80;;;;;;;12.97;85.48;99613.53;5107935;27;20215;-59
2022/12/22 09:40:20;;;;;;;6.33;1.60;;;;;;;13.07;85.20;99619.41;5105319;28;20223;-60
2022/12/22 09:42:48;;;;;;;7.90;1.30;;;;;;;13.14;84.91;99622.19;5104560;28;20614;-59
2022/12/22 09:45:19;;;;;;;3.37;0.70;;;;;;;13.14;84.05;99624.84;5106594;28;20207;-59
2022/12/22 09:47:52;;;;;;;6.87;0.97;;;;;;;13.11;83.87;99635.81;5107514;28;20202;-60
2022/12/22 09:50:22;;;;;;;3.20;0.73;;;;;;;13.07;83.49;99635.38;5107206;28;20799;-59
2022/12/22 09:52:53;;;;;;;6.80;1.20;;;;;;;13.13;83.71;99639.97;5106903;28;20233;-60
2022/12/22 09:55:37;;;;;;;3.03;0.77;;;;;;;13.10;83.69;99632.34;5110494;28;20212;-60
2022/12/22 09:58:16;;;;;;;2.10;0.60;;;;;;;13.06;83.64;99622.25;5110570;28;20636;-60
2022/12/22 10:00:58;;;;;;;4.03;0.77;;;;;;;13.09;83.69;99649.31;5110139;27;20212;-61
2022/12/22 10:03:40;;;;;;;3.10;0.80;;;;;;;13.06;84.06;99647.03;5110358;28;20205;-59
2022/12/22 10:06:14;;;;;;;4.20;0.70;;;;;;;13.09;83.84;99645.84;5107706;28;20203;-59
2022/12/22 10:08:42;;;;;;;3.17;0.70;;;;;;;13.07;84.05;99648.69;5108581;28;20727;-59
2022/12/22 10:11:13;;;;;;;2.87;0.50;;;;;;;13.09;84.32;99649.31;5110163;28;20208;-60
2022/12/22 10:13:41;;;;;;;3.40;0.60;;;;;;;13.09;83.97;99652.00;5108820;28;20227;-60
2022/12/22 10:16:21;;;;;;;3.47;0.50;;;;;;;13.11;83.73;99655.28;5107522;28;20214;-61
2022/12/22 10:18:59;;;;;;;1.33;0.40;;;;;;;13.05;84.38;99655.19;5108799;28;20695;-61
2022/12/22 10:21:28;;;;;;;2.20;0.60;;;;;;;13.04;83.83;99665.00;5107836;28;20239;-62
2022/12/22 10:23:56;;;;;;;2.83;0.53;;;;;;;13.03;83.05;99662.53;5108344;28;20231;-62
2022/12/22 10:26:26;;;;;;;5.00;0.50;;;;;;;13.07;82.51;99662.00;5104654;28;20206;-62
2022/12/22 10:29:01;;;;;;;0.63;0.30;;;;;;;13.00;82.48;99663.72;5108977;28;20283;-63
2022/12/22 10:31:30;;;;;;;4.77;0.60;;;;;;;13.04;82.40;99678.31;5107915;28;20546;-60
2022/12/22 10:34:11;;;;;;;1.30;0.30;;;;;;;13.05;81.64;99677.31;5108399;28;20309;-60
2022/12/22 10:36:41;;;;;;;5.13;1.33;;;;;;;13.02;81.68;99682.97;5108918;28;20215;-61
2022/12/22 10:39:11;;;;;;;1.20;0.53;;;;;;;13.06;81.16;99681.63;5107996;28;20208;-61
2022/12/22 10:41:43;;;;;;;1.50;0.60;;;;;;;13.06;80.21;99681.63;5110132;28;20211;-60
2022/12/22 10:44:20;;;;;;;2.23;0.33;;;;;;;13.06;80.01;99697.59;5108179;28;20209;-61
2022/12/22 10:46:50;;;;;;;3.40;0.40;;;;;;;13.11;79.28;99715.66;5105024;28;20220;-59
2022/12/22 10:49:22;;;;;;;2.37;0.40;;;;;;;13.09;78.88;99713.22;5107481;28;20206;-60
2022/12/22 10:51:54;;;;;;;1.67;0.30;;;;;;;13.14;77.98;99718.00;5107938;28;20204;-59
2022/12/22 10:54:31;;;;;;;3.80;0.60;;;;;;;13.17;77.07;99721.13;5105127;28;20967;-60
2022/12/22 10:57:05;;;;;;;3.10;0.30;;;;;;;13.19;77.79;99719.09;5103709;28;20657;-60
2022/12/22 10:59:47;;;;;;;1.07;0.30;;;;;;;13.32;76.98;99728.28;5106406;27;20203;-60
2022/12/22 11:02:28;;;;;;;0.63;0.20;;;;;;;13.28;76.11;99737.66;5105783;28;20240;-60
2022/12/22 11:05:04;;;;;;;0.70;0.30;;;;;;;13.27;76.97;99749.31;5107363;27;20200;-60
2022/12/22 11:07:34;;;;;;;0.87;0.20;;;;;;;13.23;76.91;99742.69;5104648;28;20286;-60
2022/12/22 11:10:02;;;;;;;0.50;0.23;;;;;;;13.27;76.68;99746.66;5100913;28;20321;-60
2022/12/22 11:12:40;;;;;;;0.90;0.30;;;;;;;13.28;76.71;99748.31;5107014;27;20224;-60
2022/12/22 11:15:17;;;;;;;1.63;0.30;;;;;;;13.31;76.80;99753.25;5105137;28;20257;-61
2022/12/22 11:17:58;;;;;;;1.43;0.47;;;;;;;13.24;76.45;99753.16;5108100;28;20201;-60
2022/12/22 11:20:51;;;;;;;1.03;0.37;;;;;;;13.22;76.40;99760.50;5106498;28;20207;-59
2022/12/22 11:23:29;;;;;;;1.57;0.30;;;;;;;13.23;75.88;99764.81;5105298;28;20238;-60
2022/12/22 11:26:08;;;;;;;2.07;0.33;;;;;;;13.17;76.94;99757.56;5107692;28;20211;-61
2022/12/22 11:28:54;;;;;;;0.57;0.30;;;;;;;13.19;76.29;99772.34;5105478;28;20298;-60
2022/12/22 11:31:37;;;;;;;4.03;0.57;;;;;;;13.22;75.64;99778.31;5105214;28;20218;-60
2022/12/22 11:34:19;;;;;;;0.73;0.30;;;;;;;13.24;75.74;99784.28;5106061;28;20634;-59
2022/12/22 11:37:01;;;;;;;2.63;0.50;;;;;;;13.17;76.29;99785.03;5106987;28;20213;-60
2022/12/22 11:39:40;;;;;;;0.30;0.10;;;;;;;13.14;76.93;99789.88;5105001;28;20705;-59
2022/12/22 11:42:27;;;;;;;0.93;0.30;;;;;;;13.10;76.04;99792.06;5105047;28;20301;-59
2022/12/22 11:45:08;;;;;;;1.40;0.20;;;;;;;13.14;75.72;99800.50;5105476;28;20733;-60
2022/12/22 11:47:44;;;;;;;2.47;1.20;;;;;;;13.10;76.09;99810.69;5108395;28;20216;-60
2022/12/22 11:50:36;;;;;;;0.40;0.20;;;;;;;13.12;75.62;99803.31;5108290;28;20208;-61
2022/12/22 11:53:48;;;;;;;0.83;0.30;;;;;;;13.15;75.41;99810.16;5105793;28;20206;-61
2022/12/22 11:56:23;;;;;;;1.70;0.40;;;;;;;13.11;76.15;99803.50;5102343;28;20204;-61
2022/12/22 11:59:07;;;;;;;0.80;0.20;;;;;;;13.09;76.10;99814.34;5107594;28;20671;-61
2022/12/22 12:01:49;;;;;;;1.73;0.27;;;;;;;13.17;75.76;99814.31;5104410;28;20215;-61
2022/12/22 12:04:31;;;;;;;0.70;0.20;;;;;;;13.11;75.41;99812.31;5103536;28;20251;-63
2022/12/22 12:07:17;;;;;;;0.77;0.33;;;;;;;13.09;76.00;99819.69;5104002;28;20201;-61
2022/12/22 12:10:06;;;;;;;0.80;0.20;;;;;;;13.06;75.86;99820.03;5104051;28;20301;-60
2022/12/22 12:12:45;;;;;;;1.30;0.20;;;;;;;13.10;75.84;99824.00;5105659;28;20223;-62
2022/12/22 12:15:27;;;;;;;1.30;0.20;;;;;;;13.13;75.86;99826.31;5101878;28;20236;-60
2022/12/22 12:18:12;;;;;;;0.57;0.20;;;;;;;13.14;76.17;99846.59;5103194;28;20213;-61
2022/12/22 12:20:50;;;;;;;0.57;0.23;;;;;;;13.14;76.03;99843.94;5107714;28;21063;-60
2022/12/22 12:23:33;;;;;;;1.07;0.20;;;;;;;13.12;76.43;99859.22;5105020;28;20206;-60
2022/12/22 12:26:10;;;;;;;0.40;0.20;;;;;;;13.12;76.43;99867.22;5106186;28;20302;-60
2022/12/22 12:28:48;;;;;;;1.77;0.20;;;;;;;13.19;76.48;99870.03;5103386;28;20215;-60
2022/12/22 12:31:18;;;;;;;0.47;0.20;;;;;;;13.17;76.30;99880.84;5086652;28;20210;-59
2022/12/22 12:33:57;;;;;;;1.63;0.30;;;;;;;13.12;76.12;99893.81;5086424;28;20197;-60
2022/12/22 12:36:33;;;;;;;0.50;0.20;;;;;;;13.12;75.22;99888.50;5079141;28;20207;-60
2022/12/22 12:39:10;;;;;;;4.40;0.30;;;;;;;13.17;74.84;99894.16;5075679;28;20209;-60
2022/12/22 12:41:49;;;;;;;0.60;0.20;;;;;;;13.18;75.54;99911.81;5086824;28;20240;-60
2022/12/22 12:44:20;;;;;;;2.10;0.20;;;;;;;13.22;74.74;99914.09;5086896;28;20989;-60
2022/12/22 12:46:58;;;;;;;2.83;0.30;;;;;;;13.17;74.61;99915.47;5087272;28;20208;-60
2022/12/22 12:49:58;;;;;;;0.67;0.27;;;;;;;13.12;74.96;99911.63;5077766;28;20211;-60
2022/12/22 12:53:05;;;;;;;0.63;0.30;;;;;;;13.14;74.64;99918.47;5088290;28;20208;-61
2022/12/22 12:55:36;;;;;;;0.80;0.30;;;;;;;13.13;74.74;99915.94;5084539;28;20220;-60
2022/12/22 12:58:10;;;;;;;0.70;0.30;;;;;;;13.12;74.86;99919.63;5083489;28;20627;-60
2022/12/22 13:00:45;;;;;;;0.27;0.20;;;;;;;13.12;74.48;99928.44;5079931;28;20253;-61
2022/12/22 13:03:37;;;;;;;2.20;0.20;;;;;;;13.12;74.60;99925.75;5080868;28;20251;-60
2022/12/22 13:06:48;;;;;;;1.13;0.27;;;;;;;13.11;73.67;99937.41;5083575;28;20214;-60
2022/12/22 13:09:19;;;;;;;0.70;0.27;;;;;;;13.12;74.00;99930.25;5084480;28;20550;-61
2022/12/22 13:12:34;;;;;;;0.67;0.20;;;;;;;13.13;74.30;99935.44;5083310;28;20235;-60
2022/12/22 13:15:03;;;;;;;0.73;0.30;;;;;;;13.14;75.04;99934.44;5084062;28;20734;-59
2022/12/22 13:17:41;;;;;;;0.50;0.30;;;;;;;13.12;75.45;99932.91;5086602;28;20209;-59
2022/12/22 13:20:15;;;;;;;0.90;0.47;;;;;;;13.12;75.56;99941.75;5084101;28;20281;-60
2022/12/22 13:22:43;;;;;;;1.57;0.50;;;;;;;13.13;75.48;99942.56;5087060;28;20270;-59
2022/12/22 13:25:16;;;;;;;1.47;0.70;;;;;;;13.18;75.34;99945.56;5086078;28;20207;-60
2022/12/22 13:27:45;;;;;;;1.40;0.50;;;;;;;13.17;75.46;99942.09;5085996;28;20298;-60
2022/12/22 13:30:17;;;;;;;0.63;0.30;;;;;;;13.17;75.55;99944.75;5082746;28;20245;-61
2022/12/22 13:32:48;;;;;;;0.93;0.30;;;;;;;13.21;75.67;99939.03;5082543;28;20216;-61
2022/12/22 13:35:19;;;;;;;1.17;0.40;;;;;;;13.22;75.60;99940.72;5082459;28;20229;-61
2022/12/22 13:38:07;;;;;;;4.20;0.40;;;;;;;13.17;74.54;99944.75;5079796;28;20201;-60
2022/12/22 13:40:45;;;;;;;0.53;0.30;;;;;;;13.19;74.54;99940.06;5084093;28;20241;-61
2022/12/22 13:43:15;;;;;;;1.87;0.30;;;;;;;13.21;74.64;99933.72;5084467;28;20206;-61
2022/12/22 13:45:46;;;;;;;3.70;0.57;;;;;;;13.24;73.68;99938.69;5083808;28;20218;-63
2022/12/22 13:48:17;;;;;;;0.20;0.10;;;;;;;13.31;73.73;99940.47;5085207;28;20247;-61
2022/12/22 13:50:48;;;;;;;1.40;0.40;;;;;;;13.35;72.27;99938.28;5085880;28;20216;-59
2022/12/22 13:53:23;;;;;;;0.60;0.10;;;;;;;13.36;71.15;99932.78;5085556;28;20234;-60
2022/12/22 13:56:15;;;;;;;0.60;0.20;;;;;;;13.42;71.44;99931.25;5082165;28;20234;-59
2022/12/22 13:58:44;;;;;;;1.43;0.20;;;;;;;13.50;71.06;99942.66;5084293;28;20218;-60
2022/12/22 14:01:18;;;;;;;0.40;0.30;;;;;;;13.60;70.22;99934.41;5083660;28;20305;-60
2022/12/22 14:03:48;;;;;;;1.73;0.40;;;;;;;13.60;70.75;99949.56;5085651;28;20212;-59
2022/12/22 14:06:29;;;;;;;1.13;0.30;;;;;;;13.59;70.03;99953.22;5085004;28;20195;-60
2022/12/22 14:09:15;;;;;;;1.03;0.40;;;;;;;13.53;70.39;99955.63;5083363;28;20578;-60
2022/12/22 14:11:45;;;;;;;0.53;0.20;;;;;;;13.50;70.12;99958.63;5082543;28;20593;-58
2022/12/22 14:14:23;;;;;;;0.60;0.30;;;;;;;13.49;70.18;99954.31;5083435;28;20285;-60
2022/12/22 14:16:55;;;;;;;0.43;0.20;;;;;;;13.48;70.33;99959.81;5083139;28;20221;-59
2022/12/22 14:19:25;;;;;;;1.23;0.40;;;;;;;13.42;70.23;99960.53;5081347;28;20214;-60
2022/12/22 14:22:03;;;;;;;0.60;0.40;;;;;;;13.41;70.08;99972.19;5086007;28;20213;-59
2022/12/22 14:24:36;;;;;;;0.73;0.50;;;;;;;13.35;71.46;99978.22;5085429;28;20228;-59
2022/12/22 14:27:12;;;;;;;0.53;0.30;;;;;;;13.32;71.48;99978.56;5088134;28;20658;-58
2022/12/22 14:29:40;;;;;;;0.83;0.40;;;;;;;13.29;71.76;99976.25;5086981;28;20265;-60
2022/12/22 14:32:11;;;;;;;1.33;0.47;;;;;;;13.23;71.96;99979.66;5084051;28;21148;-59
2022/12/22 14:34:39;;;;;;;0.70;0.40;;;;;;;13.23;71.48;99984.97;5083959;28;20214;-60
2022/12/22 14:37:09;;;;;;;0.50;0.30;;;;;;;13.23;71.52;99992.94;5088462;28;20271;-59
2022/12/22 14:39:37;;;;;;;6.17;0.40;;;;;;;13.18;70.80;99989.00;5086203;28;20718;-60
2022/12/22 14:42:13;;;;;;;1.63;0.30;;;;;;;13.19;71.20;99997.81;5087479;28;20259;-59
2022/12/22 14:44:44;;;;;;;1.30;0.43;;;;;;;13.18;71.36;99999.66;5089420;28;20210;-59
2022/12/22 14:47:17;;;;;;;1.73;0.67;;;;;;;13.19;71.98;99995.97;5084957;28;21041;-61
2022/12/22 14:49:49;;;;;;;2.97;0.70;;;;;;;13.19;72.57;99995.97;5085644;28;20297;-61
2022/12/22 14:52:22;;;;;;;3.23;0.97;;;;;;;13.18;72.89;99991.66;5086287;28;20603;-61
2022/12/22 14:54:53;;;;;;;2.17;0.40;;;;;;;13.22;71.90;99999.28;5082970;28;20293;-61
2022/12/22 14:57:28;;;;;;;1.53;0.60;;;;;;;13.16;73.09;100004.31;5084649;28;20293;-58
2022/12/22 15:00:06;;;;;;;2.90;0.40;;;;;;;13.14;72.93;99997.50;5084134;28;20237;-61
2022/12/22 15:02:39;;;;;;;1.03;0.30;;;;;;;13.14;72.73;100001.00;5088526;28;20226;-60
2022/12/22 15:05:16;;;;;;;0.73;0.30;;;;;;;13.13;72.95;99998.47;5086484;28;20210;-60
2022/12/22 15:07:49;;;;;;;1.00;0.30;;;;;;;13.11;73.56;99998.63;5087617;28;20295;-60
2022/12/22 15:10:39;;;;;;;0.57;0.30;;;;;;;13.14;73.45;100003.66;5089597;28;20215;-60
2022/12/22 15:13:17;;;;;;;0.63;0.30;;;;;;;13.14;73.15;99997.50;5085459;28;20268;-60
2022/12/22 15:15:44;;;;;;;4.07;0.40;;;;;;;13.14;72.79;99998.34;5086502;28;20236;-60
2022/12/22 15:18:15;;;;;;;1.03;0.53;;;;;;;13.14;72.98;100000.16;5088300;28;20323;-59
2022/12/22 15:20:43;;;;;;;0.80;0.30;;;;;;;13.12;72.21;100002.97;5085845;28;20204;-58
2022/12/22 15:23:13;;;;;;;0.80;0.27;;;;;;;13.14;72.71;100000.16;5086408;28;20233;-60
2022/12/22 15:25:40;;;;;;;2.90;0.50;;;;;;;13.11;73.30;100000.47;5085479;28;21005;-60
2022/12/22 15:28:08;;;;;;;0.70;0.40;;;;;;;13.13;73.68;100001.13;5086943;28;20211;-60
2022/12/22 15:30:37;;;;;;;0.87;0.40;;;;;;;13.11;74.02;99998.63;5100589;28;20255;-60
2022/12/22 15:33:11;;;;;;;2.00;0.50;;;;;;;13.09;74.16;99997.19;5108681;28;20203;-60
2022/12/22 15:35:41;;;;;;;1.63;0.60;;;;;;;13.07;75.00;99997.34;5109575;28;20241;-61